sensor_id;sensor_type;location;lat;lon;timestamp;P1;durP1;ratioP1;P2;durP2;ratioP2
74293;SDS011;64044;59.904;10.738;2023-02-01T00:01:11;9.25;;;4.45;;
74293;SDS011;64044;59.904;10.738;2023-02-01T00:03:37;9.60;;;4.25;;
74293;SDS011;64044;59.904;10.738;2023-02-01T00:06:03;6.72;;;4.25;;
74293;SDS011;64044;59.904;10.738;2023-02-01T00:08:29;10.98;;;5.63;;
74293;SDS011;64044;59.904;10.738;2023-02-01T00:11:02;10.65;;;5.72;;
74293;SDS011;64044;59.904;10.738;2023-02-01T00:13:30;15.68;;;6.05;;
74293;SDS011;64044;59.904;10.738;2023-02-01T00:16:04;10.38;;;4.50;;
74293;SDS011;64044;59.904;10.738;2023-02-01T00:18:31;10.55;;;4.78;;
74293;SDS011;64044;59.904;10.738;2023-02-01T00:20:57;25.83;;;5.57;;
74293;SDS011;64044;59.904;10.738;2023-02-01T00:23:23;13.07;;;5.60;;
74293;SDS011;64044;59.904;10.738;2023-02-01T00:25:48;9.93;;;5.28;;
74293;SDS011;64044;59.904;10.738;2023-02-01T00:28:14;11.35;;;5.45;;
74293;SDS011;64044;59.904;10.738;2023-02-01T00:30:40;11.68;;;5.82;;
74293;SDS011;64044;59.904;10.738;2023-02-01T00:33:06;9.82;;;5.43;;
74293;SDS011;64044;59.904;10.738;2023-02-01T00:35:33;11.25;;;4.97;;
74293;SDS011;64044;59.904;10.738;2023-02-01T00:38:02;11.23;;;5.55;;
74293;SDS011;64044;59.904;10.738;2023-02-01T00:40:27;14.23;;;5.72;;
74293;SDS011;64044;59.904;10.738;2023-02-01T00:42:53;9.73;;;5.57;;
74293;SDS011;64044;59.904;10.738;2023-02-01T00:45:19;12.00;;;5.35;;
74293;SDS011;64044;59.904;10.738;2023-02-01T00:47:45;12.65;;;6.22;;
74293;SDS011;64044;59.904;10.738;2023-02-01T00:50:10;12.35;;;5.68;;
74293;SDS011;64044;59.904;10.738;2023-02-01T00:52:36;8.48;;;5.15;;
74293;SDS011;64044;59.904;10.738;2023-02-01T00:55:02;9.85;;;5.82;;
74293;SDS011;64044;59.904;10.738;2023-02-01T00:57:28;10.43;;;4.93;;
74293;SDS011;64044;59.904;10.738;2023-02-01T00:59:54;9.57;;;5.30;;
74293;SDS011;64044;59.904;10.738;2023-02-01T01:02:19;12.07;;;5.88;;
74293;SDS011;64044;59.904;10.738;2023-02-01T01:04:45;11.35;;;5.57;;
74293;SDS011;64044;59.904;10.738;2023-02-01T01:07:11;10.43;;;5.72;;
74293;SDS011;64044;59.904;10.738;2023-02-01T01:09:36;10.75;;;5.53;;
74293;SDS011;64044;59.904;10.738;2023-02-01T01:12:02;11.85;;;6.03;;
74293;SDS011;64044;59.904;10.738;2023-02-01T01:14:28;9.35;;;5.93;;
74293;SDS011;64044;59.904;10.738;2023-02-01T01:16:55;8.82;;;5.82;;
74293;SDS011;64044;59.904;10.738;2023-02-01T01:19:20;11.32;;;5.45;;
74293;SDS011;64044;59.904;10.738;2023-02-01T01:21:46;8.65;;;4.80;;
74293;SDS011;64044;59.904;10.738;2023-02-01T01:24:12;10.93;;;5.88;;
74293;SDS011;64044;59.904;10.738;2023-02-01T01:26:38;10.27;;;5.22;;
74293;SDS011;64044;59.904;10.738;2023-02-01T01:29:03;9.07;;;5.25;;
74293;SDS011;64044;59.904;10.738;2023-02-01T01:31:30;11.65;;;6.43;;
74293;SDS011;64044;59.904;10.738;2023-02-01T01:33:56;12.88;;;5.47;;
74293;SDS011;64044;59.904;10.738;2023-02-01T01:36:24;10.18;;;5.38;;
74293;SDS011;64044;59.904;10.738;2023-02-01T01:38:52;8.30;;;4.82;;
74293;SDS011;64044;59.904;10.738;2023-02-01T01:41:19;11.63;;;5.35;;
74293;SDS011;64044;59.904;10.738;2023-02-01T01:46:18;7.18;;;4.30;;
74293;SDS011;64044;59.904;10.738;2023-02-01T01:48:47;8.20;;;4.68;;
74293;SDS011;64044;59.904;10.738;2023-02-01T01:51:16;8.27;;;5.15;;
74293;SDS011;64044;59.904;10.738;2023-02-01T01:53:48;9.40;;;4.75;;
74293;SDS011;64044;59.904;10.738;2023-02-01T01:56:21;7.57;;;4.60;;
74293;SDS011;64044;59.904;10.738;2023-02-01T01:58:47;8.13;;;4.22;;
74293;SDS011;64044;59.904;10.738;2023-02-01T02:04:03;8.55;;;4.93;;
74293;SDS011;64044;59.904;10.738;2023-02-01T02:08:55;8.55;;;4.72;;
74293;SDS011;64044;59.904;10.738;2023-02-01T02:11:21;8.43;;;5.18;;
74293;SDS011;64044;59.904;10.738;2023-02-01T02:13:50;11.20;;;5.28;;
74293;SDS011;64044;59.904;10.738;2023-02-01T02:33:48;12.32;;;4.97;;
74293;SDS011;64044;59.904;10.738;2023-02-01T02:45:33;7.90;;;4.60;;
74293;SDS011;64044;59.904;10.738;2023-02-01T02:51:07;8.05;;;4.10;;
74293;SDS011;64044;59.904;10.738;2023-02-01T03:00:04;6.25;;;3.78;;
74293;SDS011;64044;59.904;10.738;2023-02-01T03:02:51;11.23;;;4.82;;
74293;SDS011;64044;59.904;10.738;2023-02-01T03:05:37;9.80;;;4.28;;
74293;SDS011;64044;59.904;10.738;2023-02-01T03:10:43;6.90;;;4.68;;
74293;SDS011;64044;59.904;10.738;2023-02-01T03:15:45;5.57;;;3.88;;
74293;SDS011;64044;59.904;10.738;2023-02-01T03:18:17;8.68;;;4.22;;
74293;SDS011;64044;59.904;10.738;2023-02-01T03:20:50;6.20;;;3.83;;
74293;SDS011;64044;59.904;10.738;2023-02-01T03:23:19;7.40;;;4.22;;
74293;SDS011;64044;59.904;10.738;2023-02-01T03:25:48;6.88;;;4.07;;
74293;SDS011;64044;59.904;10.738;2023-02-01T03:28:18;6.67;;;3.80;;
74293;SDS011;64044;59.904;10.738;2023-02-01T03:30:47;7.38;;;4.07;;
74293;SDS011;64044;59.904;10.738;2023-02-01T03:33:15;7.85;;;3.67;;
74293;SDS011;64044;59.904;10.738;2023-02-01T03:38:54;7.28;;;3.90;;
74293;SDS011;64044;59.904;10.738;2023-02-01T03:41:28;6.43;;;4.00;;
74293;SDS011;64044;59.904;10.738;2023-02-01T03:44:06;7.80;;;4.20;;
74293;SDS011;64044;59.904;10.738;2023-02-01T03:46:35;8.30;;;4.25;;
74293;SDS011;64044;59.904;10.738;2023-02-01T03:49:27;7.20;;;3.88;;
74293;SDS011;64044;59.904;10.738;2023-02-01T03:51:58;8.40;;;4.05;;
74293;SDS011;64044;59.904;10.738;2023-02-01T03:54:25;7.60;;;3.80;;
74293;SDS011;64044;59.904;10.738;2023-02-01T03:56:53;6.70;;;4.10;;
74293;SDS011;64044;59.904;10.738;2023-02-01T03:59:22;6.13;;;3.58;;
74293;SDS011;64044;59.904;10.738;2023-02-01T04:01:49;7.88;;;4.18;;
74293;SDS011;64044;59.904;10.738;2023-02-01T04:04:15;5.43;;;3.60;;
74293;SDS011;64044;59.904;10.738;2023-02-01T04:06:48;8.93;;;4.55;;
74293;SDS011;64044;59.904;10.738;2023-02-01T04:09:15;6.07;;;3.95;;
74293;SDS011;64044;59.904;10.738;2023-02-01T04:11:41;6.82;;;3.72;;
74293;SDS011;64044;59.904;10.738;2023-02-01T04:14:07;7.57;;;4.13;;
74293;SDS011;64044;59.904;10.738;2023-02-01T04:16:33;7.90;;;4.38;;
74293;SDS011;64044;59.904;10.738;2023-02-01T04:18:59;7.35;;;4.32;;
74293;SDS011;64044;59.904;10.738;2023-02-01T04:21:25;7.28;;;4.25;;
74293;SDS011;64044;59.904;10.738;2023-02-01T04:23:52;7.20;;;4.00;;
74293;SDS011;64044;59.904;10.738;2023-02-01T04:26:18;9.10;;;4.43;;
74293;SDS011;64044;59.904;10.738;2023-02-01T04:28:45;7.22;;;4.32;;
74293;SDS011;64044;59.904;10.738;2023-02-01T04:31:15;6.97;;;3.67;;
74293;SDS011;64044;59.904;10.738;2023-02-01T04:33:42;7.15;;;4.15;;
74293;SDS011;64044;59.904;10.738;2023-02-01T04:36:08;8.00;;;4.38;;
74293;SDS011;64044;59.904;10.738;2023-02-01T04:38:34;8.90;;;5.18;;
74293;SDS011;64044;59.904;10.738;2023-02-01T04:41:00;9.60;;;4.72;;
74293;SDS011;64044;59.904;10.738;2023-02-01T04:43:25;9.27;;;4.68;;
74293;SDS011;64044;59.904;10.738;2023-02-01T04:45:51;7.32;;;4.40;;
74293;SDS011;64044;59.904;10.738;2023-02-01T04:48:18;11.68;;;4.25;;
74293;SDS011;64044;59.904;10.738;2023-02-01T04:50:45;9.82;;;4.50;;
74293;SDS011;64044;59.904;10.738;2023-02-01T04:53:13;6.88;;;4.20;;
74293;SDS011;64044;59.904;10.738;2023-02-01T04:55:42;5.75;;;4.18;;
74293;SDS011;64044;59.904;10.738;2023-02-01T04:58:08;6.90;;;4.25;;
74293;SDS011;64044;59.904;10.738;2023-02-01T05:00:34;6.95;;;4.13;;
74293;SDS011;64044;59.904;10.738;2023-02-01T05:03:00;8.27;;;4.72;;
74293;SDS011;64044;59.904;10.738;2023-02-01T05:05:26;6.30;;;3.88;;
74293;SDS011;64044;59.904;10.738;2023-02-01T05:07:52;9.60;;;4.63;;
74293;SDS011;64044;59.904;10.738;2023-02-01T05:10:18;8.02;;;4.60;;
74293;SDS011;64044;59.904;10.738;2023-02-01T05:12:44;8.13;;;4.30;;
74293;SDS011;64044;59.904;10.738;2023-02-01T05:15:29;8.63;;;5.07;;
74293;SDS011;64044;59.904;10.738;2023-02-01T05:17:55;7.22;;;4.30;;
74293;SDS011;64044;59.904;10.738;2023-02-01T05:20:21;9.63;;;5.03;;
74293;SDS011;64044;59.904;10.738;2023-02-01T05:22:46;7.05;;;4.75;;
74293;SDS011;64044;59.904;10.738;2023-02-01T05:25:12;5.95;;;4.57;;
74293;SDS011;64044;59.904;10.738;2023-02-01T05:27:38;6.78;;;4.05;;
74293;SDS011;64044;59.904;10.738;2023-02-01T05:30:04;8.07;;;4.97;;
74293;SDS011;64044;59.904;10.738;2023-02-01T05:32:30;9.07;;;5.10;;
74293;SDS011;64044;59.904;10.738;2023-02-01T05:34:56;6.00;;;4.32;;
74293;SDS011;64044;59.904;10.738;2023-02-01T05:37:22;9.02;;;4.85;;
74293;SDS011;64044;59.904;10.738;2023-02-01T05:39:48;7.72;;;5.30;;
74293;SDS011;64044;59.904;10.738;2023-02-01T05:42:14;8.80;;;5.13;;
74293;SDS011;64044;59.904;10.738;2023-02-01T05:44:40;7.13;;;4.97;;
74293;SDS011;64044;59.904;10.738;2023-02-01T05:47:05;11.38;;;5.20;;
74293;SDS011;64044;59.904;10.738;2023-02-01T05:49:31;7.85;;;4.93;;
74293;SDS011;64044;59.904;10.738;2023-02-01T05:51:57;8.25;;;5.32;;
74293;SDS011;64044;59.904;10.738;2023-02-01T05:54:23;11.70;;;6.00;;
74293;SDS011;64044;59.904;10.738;2023-02-01T05:56:49;9.00;;;5.18;;
74293;SDS011;64044;59.904;10.738;2023-02-01T05:59:14;11.13;;;6.68;;
74293;SDS011;64044;59.904;10.738;2023-02-01T06:01:40;10.77;;;6.68;;
74293;SDS011;64044;59.904;10.738;2023-02-01T06:04:06;10.82;;;6.65;;
74293;SDS011;64044;59.904;10.738;2023-02-01T06:06:32;12.27;;;7.15;;
74293;SDS011;64044;59.904;10.738;2023-02-01T06:08:58;10.90;;;7.25;;
74293;SDS011;64044;59.904;10.738;2023-02-01T06:11:25;17.92;;;8.32;;
74293;SDS011;64044;59.904;10.738;2023-02-01T06:13:51;11.88;;;7.90;;
74293;SDS011;64044;59.904;10.738;2023-02-01T06:16:16;11.98;;;7.20;;
74293;SDS011;64044;59.904;10.738;2023-02-01T06:18:42;18.92;;;8.57;;
74293;SDS011;64044;59.904;10.738;2023-02-01T06:21:08;16.17;;;8.38;;
74293;SDS011;64044;59.904;10.738;2023-02-01T06:23:34;15.60;;;8.90;;
74293;SDS011;64044;59.904;10.738;2023-02-01T06:26:01;18.85;;;9.25;;
74293;SDS011;64044;59.904;10.738;2023-02-01T06:28:28;16.27;;;7.90;;
74293;SDS011;64044;59.904;10.738;2023-02-01T06:30:55;14.48;;;7.57;;
74293;SDS011;64044;59.904;10.738;2023-02-01T06:33:23;15.85;;;7.68;;
74293;SDS011;64044;59.904;10.738;2023-02-01T06:35:56;15.02;;;7.55;;
74293;SDS011;64044;59.904;10.738;2023-02-01T06:38:25;12.05;;;6.90;;
74293;SDS011;64044;59.904;10.738;2023-02-01T06:40:52;14.13;;;7.20;;
74293;SDS011;64044;59.904;10.738;2023-02-01T06:43:20;17.52;;;7.20;;
74293;SDS011;64044;59.904;10.738;2023-02-01T06:45:50;12.35;;;6.25;;
74293;SDS011;64044;59.904;10.738;2023-02-01T06:48:16;10.05;;;6.38;;
74293;SDS011;64044;59.904;10.738;2023-02-01T06:50:42;11.23;;;6.38;;
74293;SDS011;64044;59.904;10.738;2023-02-01T06:53:08;10.63;;;6.63;;
74293;SDS011;64044;59.904;10.738;2023-02-01T06:55:34;11.35;;;6.47;;
74293;SDS011;64044;59.904;10.738;2023-02-01T06:57:59;15.55;;;6.38;;
74293;SDS011;64044;59.904;10.738;2023-02-01T07:00:27;10.50;;;4.95;;
74293;SDS011;64044;59.904;10.738;2023-02-01T07:02:53;15.40;;;6.88;;
74293;SDS011;64044;59.904;10.738;2023-02-01T07:05:19;11.85;;;5.20;;
74293;SDS011;64044;59.904;10.738;2023-02-01T07:07:45;8.68;;;5.30;;
74293;SDS011;64044;59.904;10.738;2023-02-01T07:10:11;9.70;;;4.93;;
74293;SDS011;64044;59.904;10.738;2023-02-01T07:12:37;9.60;;;4.75;;
74293;SDS011;64044;59.904;10.738;2023-02-01T07:15:03;10.30;;;4.80;;
74293;SDS011;64044;59.904;10.738;2023-02-01T07:17:29;8.68;;;3.60;;
74293;SDS011;64044;59.904;10.738;2023-02-01T07:19:55;7.50;;;3.60;;
74293;SDS011;64044;59.904;10.738;2023-02-01T07:22:21;6.18;;;3.45;;
74293;SDS011;64044;59.904;10.738;2023-02-01T07:24:47;6.55;;;3.50;;
74293;SDS011;64044;59.904;10.738;2023-02-01T07:27:13;10.10;;;5.47;;
74293;SDS011;64044;59.904;10.738;2023-02-01T07:29:38;10.30;;;4.28;;
74293;SDS011;64044;59.904;10.738;2023-02-01T07:32:04;6.55;;;3.83;;
74293;SDS011;64044;59.904;10.738;2023-02-01T07:34:30;6.80;;;3.70;;
74293;SDS011;64044;59.904;10.738;2023-02-01T07:36:56;6.95;;;3.45;;
74293;SDS011;64044;59.904;10.738;2023-02-01T07:39:22;8.07;;;3.15;;
74293;SDS011;64044;59.904;10.738;2023-02-01T07:41:48;7.32;;;3.33;;
74293;SDS011;64044;59.904;10.738;2023-02-01T07:44:13;3.63;;;2.70;;
74293;SDS011;64044;59.904;10.738;2023-02-01T07:46:39;6.10;;;2.28;;
74293;SDS011;64044;59.904;10.738;2023-02-01T07:49:05;4.65;;;3.00;;
74293;SDS011;64044;59.904;10.738;2023-02-01T07:51:31;5.28;;;2.45;;
74293;SDS011;64044;59.904;10.738;2023-02-01T07:53:57;5.18;;;2.35;;
74293;SDS011;64044;59.904;10.738;2023-02-01T07:56:23;4.90;;;2.50;;
74293;SDS011;64044;59.904;10.738;2023-02-01T07:58:50;4.35;;;2.40;;
74293;SDS011;64044;59.904;10.738;2023-02-01T08:01:18;2.88;;;2.45;;
74293;SDS011;64044;59.904;10.738;2023-02-01T08:03:45;6.68;;;2.35;;
74293;SDS011;64044;59.904;10.738;2023-02-01T08:06:19;3.75;;;2.47;;
74293;SDS011;64044;59.904;10.738;2023-02-01T08:08:46;6.70;;;2.30;;
74293;SDS011;64044;59.904;10.738;2023-02-01T08:11:12;3.03;;;2.33;;
74293;SDS011;64044;59.904;10.738;2023-02-01T08:13:39;4.25;;;2.63;;
74293;SDS011;64044;59.904;10.738;2023-02-01T08:16:05;4.93;;;2.55;;
74293;SDS011;64044;59.904;10.738;2023-02-01T08:18:33;7.10;;;2.55;;
74293;SDS011;64044;59.904;10.738;2023-02-01T08:21:03;4.13;;;2.30;;
74293;SDS011;64044;59.904;10.738;2023-02-01T08:23:33;3.78;;;2.30;;
74293;SDS011;64044;59.904;10.738;2023-02-01T08:26:13;5.88;;;2.17;;
74293;SDS011;64044;59.904;10.738;2023-02-01T08:29:03;2.47;;;1.88;;
74293;SDS011;64044;59.904;10.738;2023-02-01T08:31:30;3.25;;;2.05;;
74293;SDS011;64044;59.904;10.738;2023-02-01T08:33:57;3.40;;;1.80;;
74293;SDS011;64044;59.904;10.738;2023-02-01T08:36:25;2.80;;;1.75;;
74293;SDS011;64044;59.904;10.738;2023-02-01T08:38:53;4.72;;;2.33;;
74293;SDS011;64044;59.904;10.738;2023-02-01T08:41:20;4.57;;;1.65;;
74293;SDS011;64044;59.904;10.738;2023-02-01T08:43:48;2.88;;;1.85;;
74293;SDS011;64044;59.904;10.738;2023-02-01T08:46:14;3.60;;;1.45;;
74293;SDS011;64044;59.904;10.738;2023-02-01T08:48:41;2.75;;;1.70;;
74293;SDS011;64044;59.904;10.738;2023-02-01T08:51:07;3.10;;;1.50;;
74293;SDS011;64044;59.904;10.738;2023-02-01T08:53:35;1.92;;;1.50;;
74293;SDS011;64044;59.904;10.738;2023-02-01T08:56:01;3.72;;;1.40;;
74293;SDS011;64044;59.904;10.738;2023-02-01T08:58:28;2.95;;;1.73;;
74293;SDS011;64044;59.904;10.738;2023-02-01T09:00:53;2.40;;;1.40;;
74293;SDS011;64044;59.904;10.738;2023-02-01T09:03:20;2.85;;;1.40;;
74293;SDS011;64044;59.904;10.738;2023-02-01T09:05:46;4.43;;;1.55;;
74293;SDS011;64044;59.904;10.738;2023-02-01T09:08:12;5.82;;;2.38;;
74293;SDS011;64044;59.904;10.738;2023-02-01T09:10:40;3.22;;;1.52;;
74293;SDS011;64044;59.904;10.738;2023-02-01T09:13:06;4.85;;;1.67;;
74293;SDS011;64044;59.904;10.738;2023-02-01T09:15:33;2.88;;;1.55;;
74293;SDS011;64044;59.904;10.738;2023-02-01T09:17:59;2.75;;;1.20;;
74293;SDS011;64044;59.904;10.738;2023-02-01T09:20:25;2.25;;;1.15;;
74293;SDS011;64044;59.904;10.738;2023-02-01T09:22:51;1.60;;;1.02;;
74293;SDS011;64044;59.904;10.738;2023-02-01T09:25:17;1.35;;;1.10;;
74293;SDS011;64044;59.904;10.738;2023-02-01T09:27:44;2.42;;;1.60;;
74293;SDS011;64044;59.904;10.738;2023-02-01T09:30:09;2.47;;;1.23;;
74293;SDS011;64044;59.904;10.738;2023-02-01T09:32:36;2.28;;;1.13;;
74293;SDS011;64044;59.904;10.738;2023-02-01T09:35:02;1.50;;;1.10;;
74293;SDS011;64044;59.904;10.738;2023-02-01T09:37:28;2.30;;;1.50;;
74293;SDS011;64044;59.904;10.738;2023-02-01T09:39:53;2.38;;;1.33;;
74293;SDS011;64044;59.904;10.738;2023-02-01T09:48:02;3.00;;;1.27;;
74293;SDS011;64044;59.904;10.738;2023-02-01T09:50:37;2.47;;;1.10;;
74293;SDS011;64044;59.904;10.738;2023-02-01T09:53:10;4.05;;;1.38;;
74293;SDS011;64044;59.904;10.738;2023-02-01T09:55:47;2.13;;;1.70;;
74293;SDS011;64044;59.904;10.738;2023-02-01T09:58:30;2.92;;;1.55;;
74293;SDS011;64044;59.904;10.738;2023-02-01T10:00:59;3.70;;;1.40;;
74293;SDS011;64044;59.904;10.738;2023-02-01T10:03:31;3.63;;;1.77;;
74293;SDS011;64044;59.904;10.738;2023-02-01T10:08:55;3.38;;;1.30;;
74293;SDS011;64044;59.904;10.738;2023-02-01T10:26:19;1.63;;;1.30;;
74293;SDS011;64044;59.904;10.738;2023-02-01T10:28:46;3.50;;;2.00;;
74293;SDS011;64044;59.904;10.738;2023-02-01T10:31:15;2.23;;;1.80;;
74293;SDS011;64044;59.904;10.738;2023-02-01T10:33:46;3.03;;;1.67;;
74293;SDS011;64044;59.904;10.738;2023-02-01T10:38:42;2.40;;;1.67;;
74293;SDS011;64044;59.904;10.738;2023-02-01T10:41:19;4.03;;;1.73;;
74293;SDS011;64044;59.904;10.738;2023-02-01T10:43:48;2.88;;;1.55;;
74293;SDS011;64044;59.904;10.738;2023-02-01T10:46:18;2.75;;;1.80;;
74293;SDS011;64044;59.904;10.738;2023-02-01T10:48:44;2.63;;;1.60;;
74293;SDS011;64044;59.904;10.738;2023-02-01T10:54:23;3.60;;;1.80;;
74293;SDS011;64044;59.904;10.738;2023-02-01T10:57:03;2.35;;;1.73;;
74293;SDS011;64044;59.904;10.738;2023-02-01T10:59:53;2.70;;;1.92;;
74293;SDS011;64044;59.904;10.738;2023-02-01T11:02:26;3.70;;;1.95;;
74293;SDS011;64044;59.904;10.738;2023-02-01T11:05:07;3.05;;;1.75;;
74293;SDS011;64044;59.904;10.738;2023-02-01T11:07:35;5.18;;;1.83;;
74293;SDS011;64044;59.904;10.738;2023-02-01T11:10:01;4.80;;;2.35;;
74293;SDS011;64044;59.904;10.738;2023-02-01T11:12:29;2.70;;;1.75;;
74293;SDS011;64044;59.904;10.738;2023-02-01T11:15:43;2.67;;;2.13;;
74293;SDS011;64044;59.904;10.738;2023-02-01T11:17:45;3.95;;;1.98;;
74293;SDS011;64044;59.904;10.738;2023-02-01T11:20:15;3.33;;;1.98;;
74293;SDS011;64044;59.904;10.738;2023-02-01T11:22:49;2.10;;;1.55;;
74293;SDS011;64044;59.904;10.738;2023-02-01T11:25:19;2.83;;;1.73;;
74293;SDS011;64044;59.904;10.738;2023-02-01T11:27:47;3.30;;;1.85;;
74293;SDS011;64044;59.904;10.738;2023-02-01T11:30:22;1.98;;;1.40;;
74293;SDS011;64044;59.904;10.738;2023-02-01T11:32:55;2.63;;;1.60;;
74293;SDS011;64044;59.904;10.738;2023-02-01T11:35:21;2.30;;;1.70;;
74293;SDS011;64044;59.904;10.738;2023-02-01T11:37:52;3.33;;;1.70;;
74293;SDS011;64044;59.904;10.738;2023-02-01T11:43:12;12.07;;;1.50;;
74293;SDS011;64044;59.904;10.738;2023-02-01T11:45:38;3.28;;;1.73;;
74293;SDS011;64044;59.904;10.738;2023-02-01T11:48:09;3.08;;;1.83;;
74293;SDS011;64044;59.904;10.738;2023-02-01T11:59:10;1.15;;;1.05;;
74293;SDS011;64044;59.904;10.738;2023-02-01T12:07:39;1.77;;;1.27;;
74293;SDS011;64044;59.904;10.738;2023-02-01T12:10:12;2.70;;;1.40;;
74293;SDS011;64044;59.904;10.738;2023-02-01T12:12:50;2.08;;;1.40;;
74293;SDS011;64044;59.904;10.738;2023-02-01T12:16:25;2.45;;;1.20;;
74293;SDS011;64044;59.904;10.738;2023-02-01T12:38:39;3.20;;;1.20;;
74293;SDS011;64044;59.904;10.738;2023-02-01T12:52:23;1.55;;;1.20;;
74293;SDS011;64044;59.904;10.738;2023-02-01T12:57:52;2.28;;;1.30;;
74293;SDS011;64044;59.904;10.738;2023-02-01T13:00:49;2.80;;;1.15;;
74293;SDS011;64044;59.904;10.738;2023-02-01T13:06:19;1.20;;;1.05;;
74293;SDS011;64044;59.904;10.738;2023-02-01T13:08:53;3.65;;;1.25;;
74293;SDS011;64044;59.904;10.738;2023-02-01T13:11:42;3.15;;;1.08;;
74293;SDS011;64044;59.904;10.738;2023-02-01T13:17:13;1.73;;;0.80;;
74293;SDS011;64044;59.904;10.738;2023-02-01T13:19:50;1.20;;;1.00;;
74293;SDS011;64044;59.904;10.738;2023-02-01T13:22:24;4.72;;;0.93;;
74293;SDS011;64044;59.904;10.738;2023-02-01T13:24:55;1.08;;;0.75;;
74293;SDS011;64044;59.904;10.738;2023-02-01T13:27:28;1.02;;;0.70;;
74293;SDS011;64044;59.904;10.738;2023-02-01T13:30:03;1.27;;;0.60;;
74293;SDS011;64044;59.904;10.738;2023-02-01T13:41:24;1.40;;;0.90;;
74293;SDS011;64044;59.904;10.738;2023-02-01T13:43:56;1.17;;;1.00;;
74293;SDS011;64044;59.904;10.738;2023-02-01T13:46:26;4.78;;;1.10;;
74293;SDS011;64044;59.904;10.738;2023-02-01T13:48:59;2.33;;;1.15;;
74293;SDS011;64044;59.904;10.738;2023-02-01T13:51:46;2.40;;;1.20;;
74293;SDS011;64044;59.904;10.738;2023-02-01T13:57:06;1.98;;;1.23;;
74293;SDS011;64044;59.904;10.738;2023-02-01T14:00:23;2.43;;;1.10;;
74293;SDS011;64044;59.904;10.738;2023-02-01T14:03:01;2.22;;;0.77;;
74293;SDS011;64044;59.904;10.738;2023-02-01T14:08:10;1.15;;;1.00;;
74293;SDS011;64044;59.904;10.738;2023-02-01T14:21:22;1.23;;;0.80;;
74293;SDS011;64044;59.904;10.738;2023-02-01T14:26:40;1.48;;;0.90;;
74293;SDS011;64044;59.904;10.738;2023-02-01T14:47:52;5.00;;;1.30;;
74293;SDS011;64044;59.904;10.738;2023-02-01T14:52:46;1.33;;;1.05;;
74293;SDS011;64044;59.904;10.738;2023-02-01T15:01:18;4.00;;;1.48;;
74293;SDS011;64044;59.904;10.738;2023-02-01T15:03:47;7.78;;;1.02;;
74293;SDS011;64044;59.904;10.738;2023-02-01T15:09:19;2.53;;;1.10;;
74293;SDS011;64044;59.904;10.738;2023-02-01T15:11:59;3.78;;;1.33;;
74293;SDS011;64044;59.904;10.738;2023-02-01T15:14:28;3.42;;;1.15;;
74293;SDS011;64044;59.904;10.738;2023-02-01T15:16:56;1.67;;;0.90;;
74293;SDS011;64044;59.904;10.738;2023-02-01T15:19:22;3.92;;;0.90;;
74293;SDS011;64044;59.904;10.738;2023-02-01T15:21:50;3.13;;;1.20;;
74293;SDS011;64044;59.904;10.738;2023-02-01T15:24:19;2.30;;;1.38;;
74293;SDS011;64044;59.904;10.738;2023-02-01T15:26:53;3.17;;;1.40;;
74293;SDS011;64044;59.904;10.738;2023-02-01T15:29:21;3.40;;;1.48;;
74293;SDS011;64044;59.904;10.738;2023-02-01T15:31:51;1.55;;;1.10;;
74293;SDS011;64044;59.904;10.738;2023-02-01T15:34:17;2.40;;;1.20;;
74293;SDS011;64044;59.904;10.738;2023-02-01T15:36:44;2.40;;;1.02;;
74293;SDS011;64044;59.904;10.738;2023-02-01T15:39:24;1.88;;;1.23;;
74293;SDS011;64044;59.904;10.738;2023-02-01T15:44:28;2.95;;;0.90;;
74293;SDS011;64044;59.904;10.738;2023-02-01T15:49:39;0.80;;;0.60;;
74293;SDS011;64044;59.904;10.738;2023-02-01T15:52:15;0.98;;;0.80;;
74293;SDS011;64044;59.904;10.738;2023-02-01T15:54:45;1.60;;;0.90;;
74293;SDS011;64044;59.904;10.738;2023-02-01T15:57:18;1.95;;;0.95;;
74293;SDS011;64044;59.904;10.738;2023-02-01T16:10:39;3.58;;;1.05;;
74293;SDS011;64044;59.904;10.738;2023-02-01T16:13:10;1.63;;;1.10;;
74293;SDS011;64044;59.904;10.738;2023-02-01T16:15:37;2.85;;;0.75;;
74293;SDS011;64044;59.904;10.738;2023-02-01T16:18:03;2.38;;;0.88;;
74293;SDS011;64044;59.904;10.738;2023-02-01T16:20:29;2.25;;;1.00;;
74293;SDS011;64044;59.904;10.738;2023-02-01T16:22:55;3.58;;;0.90;;
74293;SDS011;64044;59.904;10.738;2023-02-01T16:25:21;4.18;;;1.20;;
74293;SDS011;64044;59.904;10.738;2023-02-01T16:27:47;4.82;;;1.05;;
74293;SDS011;64044;59.904;10.738;2023-02-01T16:30:13;3.45;;;1.10;;
74293;SDS011;64044;59.904;10.738;2023-02-01T16:32:39;2.60;;;0.90;;
74293;SDS011;64044;59.904;10.738;2023-02-01T16:35:05;6.25;;;1.77;;
74293;SDS011;64044;59.904;10.738;2023-02-01T16:37:52;4.38;;;1.15;;
74293;SDS011;64044;59.904;10.738;2023-02-01T16:40:18;1.85;;;1.25;;
74293;SDS011;64044;59.904;10.738;2023-02-01T16:42:47;2.03;;;1.20;;
74293;SDS011;64044;59.904;10.738;2023-02-01T16:45:15;5.22;;;1.15;;
74293;SDS011;64044;59.904;10.738;2023-02-01T16:47:42;6.65;;;1.02;;
74293;SDS011;64044;59.904;10.738;2023-02-01T16:50:16;1.50;;;1.00;;
74293;SDS011;64044;59.904;10.738;2023-02-01T16:52:45;1.45;;;1.20;;
74293;SDS011;64044;59.904;10.738;2023-02-01T16:55:15;1.58;;;1.23;;
74293;SDS011;64044;59.904;10.738;2023-02-01T16:57:42;2.65;;;1.40;;
74293;SDS011;64044;59.904;10.738;2023-02-01T17:00:09;2.35;;;1.15;;
74293;SDS011;64044;59.904;10.738;2023-02-01T17:02:37;3.03;;;1.08;;
74293;SDS011;64044;59.904;10.738;2023-02-01T17:05:03;2.40;;;1.48;;
74293;SDS011;64044;59.904;10.738;2023-02-01T17:07:30;2.88;;;1.60;;
74293;SDS011;64044;59.904;10.738;2023-02-01T17:09:56;2.22;;;1.38;;
74293;SDS011;64044;59.904;10.738;2023-02-01T17:12:28;2.63;;;1.08;;
74293;SDS011;64044;59.904;10.738;2023-02-01T17:14:55;1.83;;;1.00;;
74293;SDS011;64044;59.904;10.738;2023-02-01T17:17:22;2.83;;;0.90;;
74293;SDS011;64044;59.904;10.738;2023-02-01T17:19:50;1.95;;;1.05;;
74293;SDS011;64044;59.904;10.738;2023-02-01T17:22:18;1.60;;;1.00;;
74293;SDS011;64044;59.904;10.738;2023-02-01T17:24:45;1.92;;;1.00;;
74293;SDS011;64044;59.904;10.738;2023-02-01T17:27:11;2.05;;;1.13;;
74293;SDS011;64044;59.904;10.738;2023-02-01T17:29:37;1.83;;;1.17;;
74293;SDS011;64044;59.904;10.738;2023-02-01T17:32:03;5.05;;;1.65;;
74293;SDS011;64044;59.904;10.738;2023-02-01T17:34:29;3.88;;;1.85;;
74293;SDS011;64044;59.904;10.738;2023-02-01T17:36:55;4.95;;;2.05;;
74293;SDS011;64044;59.904;10.738;2023-02-01T17:39:21;3.95;;;1.92;;
74293;SDS011;64044;59.904;10.738;2023-02-01T17:42:08;4.25;;;1.67;;
74293;SDS011;64044;59.904;10.738;2023-02-01T17:44:35;4.20;;;2.00;;
74293;SDS011;64044;59.904;10.738;2023-02-01T17:47:01;1.98;;;1.35;;
74293;SDS011;64044;59.904;10.738;2023-02-01T17:49:27;3.45;;;1.50;;
74293;SDS011;64044;59.904;10.738;2023-02-01T17:51:53;3.67;;;1.45;;
74293;SDS011;64044;59.904;10.738;2023-02-01T17:54:19;4.30;;;2.00;;
74293;SDS011;64044;59.904;10.738;2023-02-01T17:56:45;5.38;;;2.10;;
74293;SDS011;64044;59.904;10.738;2023-02-01T17:59:14;7.53;;;2.33;;
74293;SDS011;64044;59.904;10.738;2023-02-01T18:01:41;7.57;;;3.50;;
74293;SDS011;64044;59.904;10.738;2023-02-01T18:04:15;4.60;;;2.70;;
74293;SDS011;64044;59.904;10.738;2023-02-01T18:06:42;3.28;;;1.80;;
74293;SDS011;64044;59.904;10.738;2023-02-01T18:09:09;4.93;;;2.38;;
74293;SDS011;64044;59.904;10.738;2023-02-01T18:11:35;4.10;;;2.47;;
74293;SDS011;64044;59.904;10.738;2023-02-01T18:14:00;3.63;;;1.88;;